South Fork, Colorado
Current Conditions -  °F | °C
As of 7:50 PM on Monday 22 Dec 2014 (Local Time) from KRCV Reporting Station
Broken Clouds Broken Clouds  
Wind Chill: 16°   Ceiling: 7500
Heat Index: 26°   Visibility: 10mi
Dew Point: 10°   Wind: 12mph
Humidity: 49%   Direction: 320°NW
Pressure: 29.79"   Gusts: 21mph
Location:  37.67°N, 106.64°W
Report Text: KRCV 230250Z AUTO 32010G18KT 10SM SCT041 SCT049 BKN075 M03/M12 A2979 RMK AO2 T10311124
Loading
Personal Weather Stations






























Interactive Weather Map New forecast layout! Learn more

10-Day Weather Forecast

Advertisements
Track Severe Weather on mobile